createdAt,value
2022-12-03T00:00:12.903Z,-2.50
2022-12-03T00:02:18.581Z,-2.50
2022-12-03T00:04:23.756Z,-2.50
2022-12-03T00:06:34.203Z,-2.50
2022-12-03T00:08:38.391Z,-2.60
2022-12-03T00:10:42.919Z,-2.60
2022-12-03T00:12:47.227Z,-2.50
2022-12-03T00:14:51.589Z,-2.50
2022-12-03T00:16:56.570Z,-2.50
2022-12-03T00:19:00.348Z,-2.50
2022-12-03T00:21:04.700Z,-2.40
2022-12-03T00:23:09.679Z,-2.50
2022-12-03T00:25:13.969Z,-2.40
2022-12-03T00:27:18.222Z,-2.50
2022-12-03T00:29:23.239Z,-2.40
2022-12-03T00:31:28.165Z,-2.40
2022-12-03T00:33:39.689Z,-2.40
2022-12-03T00:35:44.490Z,-2.40
2022-12-03T00:37:48.677Z,-2.40
2022-12-03T00:39:52.827Z,-2.50
2022-12-03T00:41:57.015Z,-2.50
2022-12-03T00:44:01.222Z,-2.50
2022-12-03T00:46:05.467Z,-2.50
2022-12-03T00:48:09.714Z,-2.60
2022-12-03T00:50:14.213Z,-2.70
2022-12-03T00:52:17.908Z,-2.70
2022-12-03T00:54:25.649Z,-2.60
2022-12-03T00:56:34.139Z,-2.50
2022-12-03T00:58:38.014Z,-2.60
2022-12-03T01:00:42.252Z,-2.60
2022-12-03T01:02:47.180Z,-2.60
2022-12-03T01:04:51.714Z,-2.50
2022-12-03T01:06:56.145Z,-2.50
2022-12-03T01:08:59.874Z,-2.50
2022-12-03T01:11:04.150Z,-2.60
2022-12-03T01:13:08.307Z,-2.60
2022-12-03T01:15:12.963Z,-2.60
2022-12-03T01:17:17.252Z,-2.70
2022-12-03T01:19:22.787Z,-2.70
2022-12-03T01:21:26.976Z,-2.80
2022-12-03T01:23:31.182Z,-2.80
2022-12-03T01:25:36.225Z,-2.80
2022-12-03T01:27:40.378Z,-2.70
2022-12-03T01:29:44.317Z,-2.70
2022-12-03T01:32:07.237Z,-2.70
2022-12-03T01:34:10.927Z,-2.70
2022-12-03T01:36:15.173Z,-2.80
2022-12-03T01:38:19.412Z,-2.70
2022-12-03T01:40:24.245Z,-2.60
2022-12-03T01:42:42.254Z,-2.60
2022-12-03T01:44:47.185Z,-2.70
2022-12-03T01:46:52.385Z,-2.70
2022-12-03T01:48:58.276Z,-2.60
2022-12-03T01:51:02.551Z,-2.50
2022-12-03T01:53:07.094Z,-2.50
2022-12-03T01:55:17.088Z,-2.70
2022-12-03T01:57:36.005Z,-2.60
2022-12-03T01:59:41.746Z,-2.60
2022-12-03T02:01:46.054Z,-2.60
2022-12-03T02:03:49.791Z,-2.60
2022-12-03T02:05:55.207Z,-2.60
2022-12-03T02:08:00.819Z,-2.70
2022-12-03T02:10:06.004Z,-2.70
2022-12-03T02:12:10.173Z,-2.70
2022-12-03T02:14:21.231Z,-2.70
2022-12-03T02:16:25.607Z,-2.70
2022-12-03T02:18:29.918Z,-2.60
2022-12-03T02:20:38.928Z,-2.60
2022-12-03T02:22:54.399Z,-2.60
2022-12-03T02:25:06.840Z,-2.70
2022-12-03T02:27:11.060Z,-2.70
2022-12-03T02:29:15.333Z,-2.60
2022-12-03T02:31:19.644Z,-2.70
2022-12-03T02:33:23.307Z,-2.70
2022-12-03T02:35:32.515Z,-2.80
2022-12-03T02:37:38.508Z,-2.80
2022-12-03T02:39:45.237Z,-2.90
2022-12-03T02:42:08.517Z,-2.80
2022-12-03T02:44:12.504Z,-2.80
2022-12-03T02:46:16.250Z,-2.80
2022-12-03T02:48:36.593Z,-2.90
2022-12-03T02:50:44.832Z,-2.90
2022-12-03T02:52:50.191Z,-2.80
2022-12-03T02:54:54.809Z,-2.80
2022-12-03T02:56:59.251Z,-2.70
2022-12-03T02:59:05.504Z,-2.70
2022-12-03T03:01:11.694Z,-2.70
2022-12-03T03:03:15.879Z,-2.70
2022-12-03T03:05:23.790Z,-2.60
2022-12-03T03:07:28.160Z,-2.70
2022-12-03T03:09:32.046Z,-2.80
2022-12-03T03:11:36.270Z,-2.80
2022-12-03T03:13:41.520Z,-2.70
2022-12-03T03:15:46.311Z,-2.70
2022-12-03T03:17:50.637Z,-2.80
2022-12-03T03:19:54.834Z,-2.70
2022-12-03T03:21:59.292Z,-2.60
2022-12-03T03:24:03.499Z,-2.80
2022-12-03T03:26:13.218Z,-2.80
2022-12-03T03:28:18.753Z,-2.70
2022-12-03T03:30:22.906Z,-2.60
2022-12-03T03:32:28.795Z,-2.60
2022-12-03T03:34:35.202Z,-2.60
2022-12-03T03:36:39.253Z,-2.60
2022-12-03T03:38:44.034Z,-2.60
2022-12-03T03:40:49.110Z,-2.70
2022-12-03T03:42:53.891Z,-2.60
2022-12-03T03:44:59.222Z,-2.60
2022-12-03T03:47:04.082Z,-2.60
2022-12-03T03:49:09.220Z,-2.60
2022-12-03T03:51:14.810Z,-2.60
2022-12-03T03:53:19.883Z,-2.60
2022-12-03T03:55:24.952Z,-2.60
2022-12-03T03:57:29.451Z,-2.80
2022-12-03T03:59:33.851Z,-2.90
2022-12-03T04:01:39.863Z,-2.90
2022-12-03T04:03:44.965Z,-2.90
2022-12-03T04:05:53.100Z,-2.80
2022-12-03T04:07:57.781Z,-2.70
2022-12-03T04:10:02.819Z,-2.70
2022-12-03T04:12:26.738Z,-2.70
2022-12-03T04:14:31.141Z,-2.60
2022-12-03T04:16:36.161Z,-2.60
2022-12-03T04:18:46.943Z,-2.60
2022-12-03T04:20:51.272Z,-2.60
2022-12-03T04:22:55.541Z,-2.60
2022-12-03T04:25:20.281Z,-2.60
2022-12-03T04:27:43.353Z,-2.60
2022-12-03T04:29:47.730Z,-2.60
2022-12-03T04:32:11.542Z,-2.60
2022-12-03T04:34:33.580Z,-2.60
2022-12-03T04:36:38.736Z,-2.70
2022-12-03T04:38:43.040Z,-2.70
2022-12-03T04:41:06.260Z,-2.60
2022-12-03T04:43:10.560Z,-2.70
2022-12-03T04:45:15.500Z,-2.70
2022-12-03T04:47:21.300Z,-2.60
2022-12-03T04:49:25.901Z,-2.60
2022-12-03T04:51:30.194Z,-2.50
2022-12-03T04:53:36.235Z,-2.60
2022-12-03T04:55:40.804Z,-2.60
2022-12-03T04:57:45.150Z,-2.70
2022-12-03T04:59:50.142Z,-2.60
2022-12-03T05:01:55.116Z,-2.70
2022-12-03T05:03:59.511Z,-2.70
2022-12-03T05:06:04.522Z,-2.70
2022-12-03T05:08:09.199Z,-2.60
2022-12-03T05:10:13.531Z,-2.70
2022-12-03T05:12:17.900Z,-2.70
2022-12-03T05:14:22.255Z,-2.70
2022-12-03T05:16:26.631Z,-2.70
2022-12-03T05:18:31.081Z,-2.70
2022-12-03T05:20:51.337Z,-2.60
2022-12-03T05:22:57.440Z,-2.60
2022-12-03T05:25:02.110Z,-2.60
2022-12-03T05:27:07.120Z,-2.60
2022-12-03T05:29:10.960Z,-2.60
2022-12-03T05:31:16.040Z,-2.60
2022-12-03T05:33:21.339Z,-2.60
2022-12-03T05:35:26.589Z,-2.50
2022-12-03T05:37:31.510Z,-2.50
2022-12-03T05:39:36.400Z,-2.40
2022-12-03T05:41:59.820Z,-2.40
2022-12-03T05:44:04.219Z,-2.50
2022-12-03T05:46:08.762Z,-2.50
2022-12-03T05:48:16.851Z,-2.50
2022-12-03T05:50:22.523Z,-2.40
2022-12-03T05:52:27.421Z,-2.40
2022-12-03T05:54:33.510Z,-2.40
2022-12-03T05:56:37.791Z,-2.40
2022-12-03T05:58:42.109Z,-2.50
2022-12-03T06:00:45.911Z,-2.50
2022-12-03T06:02:50.526Z,-2.50
2022-12-03T06:04:55.414Z,-2.50
2022-12-03T06:07:00.150Z,-2.50
2022-12-03T06:09:05.141Z,-2.50
2022-12-03T06:11:10.251Z,-2.50
2022-12-03T06:13:15.279Z,-2.60
2022-12-03T06:15:20.324Z,-2.50
2022-12-03T06:17:24.690Z,-2.40
2022-12-03T06:19:29.653Z,-2.30
2022-12-03T06:21:33.978Z,-2.30
2022-12-03T06:23:39.520Z,-2.40
2022-12-03T06:25:43.820Z,-2.30
2022-12-03T06:27:47.870Z,-2.40
2022-12-03T06:29:51.650Z,-2.40
2022-12-03T06:31:56.071Z,-2.40
2022-12-03T06:34:00.350Z,-2.30
2022-12-03T06:36:04.673Z,-2.30
2022-12-03T06:38:09.001Z,-2.40
2022-12-03T06:40:14.086Z,-2.40
2022-12-03T06:42:17.920Z,-2.30
2022-12-03T06:44:22.261Z,-2.40
2022-12-03T06:46:26.703Z,-2.40
2022-12-03T06:48:31.831Z,-2.40
2022-12-03T06:50:36.200Z,-2.40
2022-12-03T06:52:40.495Z,-2.40
2022-12-03T06:54:44.204Z,-2.40
2022-12-03T06:56:48.722Z,-2.30
2022-12-03T06:58:53.781Z,-2.30
2022-12-03T07:00:57.019Z,-2.30
2022-12-03T07:03:01.378Z,-2.30
2022-12-03T07:05:06.172Z,-2.20
2022-12-03T07:07:11.231Z,-2.20
2022-12-03T07:09:18.680Z,-2.20
2022-12-03T07:11:35.812Z,-2.20
2022-12-03T07:13:40.750Z,-2.20
2022-12-03T07:15:45.779Z,-2.20
2022-12-03T07:17:50.752Z,-2.10
2022-12-03T07:19:55.204Z,-2.00
2022-12-03T07:22:00.156Z,-2.10
2022-12-03T07:24:04.481Z,-2.20
2022-12-03T07:26:09.470Z,-2.10
2022-12-03T07:28:14.139Z,-2.10
2022-12-03T07:30:18.972Z,-2.00
2022-12-03T07:32:23.972Z,-2.00
2022-12-03T07:34:28.957Z,-2.00
2022-12-03T07:36:33.030Z,-2.10
2022-12-03T07:38:38.562Z,-2.10
2022-12-03T07:40:42.569Z,-2.00
2022-12-03T07:42:47.340Z,-2.00
2022-12-03T07:44:52.634Z,-2.00
2022-12-03T07:46:56.897Z,-2.00
2022-12-03T07:49:01.821Z,-1.90
2022-12-03T07:51:06.173Z,-1.90
2022-12-03T07:53:10.511Z,-1.90
2022-12-03T07:55:15.250Z,-1.90
2022-12-03T07:57:19.524Z,-2.00
2022-12-03T07:59:24.200Z,-1.90
2022-12-03T08:01:29.360Z,-1.90
2022-12-03T08:03:33.273Z,-1.90
2022-12-03T08:05:37.681Z,-1.90
2022-12-03T08:07:42.941Z,-1.90
2022-12-03T08:09:47.431Z,-1.80
2022-12-03T08:11:52.631Z,-1.80
2022-12-03T08:13:57.169Z,-1.90
2022-12-03T08:16:09.498Z,-1.90
2022-12-03T08:18:18.820Z,-1.80
2022-12-03T08:20:29.131Z,-1.80
2022-12-03T08:22:33.511Z,-1.80
2022-12-03T08:24:38.111Z,-1.70
2022-12-03T08:26:42.001Z,-1.70
2022-12-03T08:28:47.120Z,-1.50
2022-12-03T08:31:24.773Z,-1.50
2022-12-03T08:33:37.071Z,-1.60
2022-12-03T08:35:43.769Z,-1.60
2022-12-03T08:37:48.170Z,-1.60
2022-12-03T08:39:56.890Z,-1.60
2022-12-03T08:42:47.311Z,-1.70
2022-12-03T08:44:52.651Z,-1.70
2022-12-03T08:47:13.017Z,-1.70
2022-12-03T08:49:20.060Z,-1.60
2022-12-03T08:51:29.151Z,-1.50
2022-12-03T08:54:08.109Z,-1.50
2022-12-03T08:56:28.129Z,-1.40
2022-12-03T08:58:46.942Z,-1.40
2022-12-03T09:01:13.635Z,-1.40
2022-12-03T09:03:21.570Z,-1.50
2022-12-03T17:31:42.392Z,-2.00
2022-12-03T17:33:45.502Z,-1.90
2022-12-03T17:35:47.970Z,-1.90
2022-12-03T17:37:50.591Z,-1.80
2022-12-03T17:39:53.303Z,-1.60
2022-12-03T17:41:56.762Z,-1.50
2022-12-03T17:43:59.360Z,-1.40
2022-12-03T17:46:02.761Z,-1.40
2022-12-03T17:48:06.230Z,-1.30
2022-12-03T17:50:10.001Z,-1.30
2022-12-03T17:52:12.550Z,-1.20
2022-12-03T17:54:15.131Z,-1.20
2022-12-03T17:56:17.660Z,-1.20
2022-12-03T17:58:20.230Z,-1.10
2022-12-03T18:00:23.080Z,-1.10
2022-12-03T18:02:25.480Z,-1.10
2022-12-03T18:04:28.088Z,-1.10
2022-12-03T18:06:30.941Z,-1.10
2022-12-03T18:08:33.804Z,-1.10
2022-12-03T18:10:36.683Z,-1.10
2022-12-03T18:12:39.301Z,-1.10
2022-12-03T18:14:41.930Z,-1.10
2022-12-03T18:16:44.622Z,-1.10
2022-12-03T18:18:48.094Z,-1.10
2022-12-03T18:20:54.150Z,-1.00
2022-12-03T18:22:58.101Z,-1.00
2022-12-03T18:25:01.910Z,-1.00
2022-12-03T18:27:04.763Z,-1.00
2022-12-03T18:29:07.441Z,-1.00
2022-12-03T18:31:17.069Z,-1.10
2022-12-03T18:33:19.671Z,-1.00
2022-12-03T18:35:22.819Z,-1.00
2022-12-03T18:37:30.349Z,-1.00
2022-12-03T18:39:37.651Z,-1.00
2022-12-03T18:41:40.281Z,-1.10
2022-12-03T18:43:43.562Z,-1.10
2022-12-03T18:45:46.299Z,-1.10
2022-12-03T18:47:49.048Z,-1.10
2022-12-03T18:49:52.066Z,-1.00
2022-12-03T18:51:59.341Z,-1.00
2022-12-03T18:55:36.922Z,-1.00
2022-12-03T18:57:39.541Z,-1.00
2022-12-03T18:59:42.260Z,-1.00
2022-12-03T19:01:45.419Z,-0.90
2022-12-03T19:03:49.103Z,-1.00
2022-12-03T19:05:51.711Z,-1.00
2022-12-03T19:07:56.232Z,-1.00
2022-12-03T19:09:59.480Z,-1.00
2022-12-03T19:12:02.350Z,-1.10
2022-12-03T19:14:04.940Z,-1.00
2022-12-03T19:16:10.267Z,-0.90
2022-12-03T19:18:12.814Z,-0.80
2022-12-03T19:20:15.849Z,-0.80
2022-12-03T19:22:18.800Z,-0.80
2022-12-03T19:24:25.515Z,-0.90
2022-12-03T19:26:28.670Z,-0.80
2022-12-03T19:28:31.846Z,-0.80
2022-12-03T19:30:34.620Z,-0.80
2022-12-03T19:32:37.540Z,-0.80
2022-12-03T19:34:44.053Z,-0.90
2022-12-03T19:36:47.887Z,-0.90
2022-12-03T19:38:56.922Z,-0.80
2022-12-03T19:41:08.691Z,-0.80
2022-12-03T19:43:11.339Z,-0.80
2022-12-03T19:45:13.812Z,-0.80
2022-12-03T19:47:16.441Z,-0.80
2022-12-03T19:49:21.359Z,-0.80
2022-12-03T19:51:34.573Z,-0.80
2022-12-03T19:53:38.731Z,-0.80
2022-12-03T19:55:41.499Z,-0.80
2022-12-03T19:57:44.192Z,-0.80
2022-12-03T19:59:46.891Z,-0.70
2022-12-03T20:01:49.426Z,-0.70
2022-12-03T20:03:55.429Z,-0.80
2022-12-03T20:06:01.149Z,-0.80
2022-12-03T20:08:04.433Z,-0.70
2022-12-03T20:10:07.720Z,-0.70
2022-12-03T20:12:10.290Z,-0.60
2022-12-03T20:14:16.350Z,-0.60
2022-12-03T20:16:19.452Z,-0.60
2022-12-03T20:18:22.481Z,-0.60
2022-12-03T20:20:25.620Z,-0.60
2022-12-03T20:22:28.542Z,-0.60
2022-12-03T20:24:31.309Z,-0.60
2022-12-03T20:26:34.151Z,-0.60
2022-12-03T20:28:36.860Z,-0.60
2022-12-03T20:30:39.353Z,-0.70
2022-12-03T20:32:45.525Z,-0.70
2022-12-03T20:34:49.179Z,-0.60
2022-12-03T20:36:51.620Z,-0.60
2022-12-03T20:38:56.572Z,-0.60
2022-12-03T20:41:16.713Z,-0.60
2022-12-03T20:43:19.381Z,-0.60
2022-12-03T20:45:22.146Z,-0.60
2022-12-03T20:47:26.831Z,-0.70
2022-12-03T20:49:29.560Z,-0.60
2022-12-03T20:51:32.213Z,-0.50
2022-12-03T20:53:35.633Z,-0.50
2022-12-03T20:55:38.159Z,-0.50
2022-12-03T20:57:40.991Z,-0.50
2022-12-03T20:59:43.460Z,-0.50
2022-12-03T21:01:46.381Z,-0.50
2022-12-03T21:03:50.370Z,-0.40
2022-12-03T21:05:59.711Z,-0.40
2022-12-03T21:08:02.232Z,-0.40
2022-12-03T21:10:05.311Z,-0.40
2022-12-03T21:12:08.310Z,-0.50
2022-12-03T21:14:11.708Z,-0.60
2022-12-03T21:16:17.953Z,-0.60
2022-12-03T21:18:20.981Z,-0.70
2022-12-03T21:20:23.660Z,-0.70
2022-12-03T21:22:26.410Z,-0.70
2022-12-03T21:24:29.331Z,-0.60
2022-12-03T21:26:33.322Z,-0.50
2022-12-03T21:28:36.292Z,-0.40
2022-12-03T21:30:40.749Z,-0.40
2022-12-03T21:32:43.731Z,-0.40
2022-12-03T21:34:46.420Z,-0.40
2022-12-03T21:36:49.386Z,-0.50
2022-12-03T21:38:52.240Z,-0.50
2022-12-03T21:40:55.467Z,-0.50
2022-12-03T21:42:58.091Z,-0.50
2022-12-03T21:45:00.572Z,-0.60
2022-12-03T21:47:09.833Z,-0.60
2022-12-03T21:49:17.401Z,-0.60
2022-12-03T21:51:20.992Z,-0.50
2022-12-03T21:53:23.731Z,-0.50
2022-12-03T21:55:26.451Z,-0.40
2022-12-03T21:59:07.131Z,-0.40
2022-12-03T22:01:20.442Z,-0.30
2022-12-03T22:03:23.171Z,-0.30
2022-12-03T22:05:25.773Z,-0.40
2022-12-03T22:07:28.340Z,-0.50
2022-12-03T22:09:34.230Z,-0.40
